createdAt,value
2022-07-25T00:02:03.535Z,95398.91
2022-07-25T00:04:31.409Z,95401.84
2022-07-25T00:06:59.590Z,95401.25
2022-07-25T00:09:27.359Z,95398.66
2022-07-25T00:11:55.087Z,95394.31
2022-07-25T00:14:22.827Z,95391.56
2022-07-25T00:16:52.121Z,95396.56
2022-07-25T00:19:19.944Z,95389.94
2022-07-25T00:21:48.774Z,95388.19
2022-07-25T00:24:16.496Z,95391.59
2022-07-25T00:26:44.294Z,95388.16
2022-07-25T00:29:12.001Z,95388.00
2022-07-25T00:31:39.727Z,95378.50
2022-07-25T00:34:09.366Z,95383.19
2022-07-25T00:36:37.624Z,95376.88
2022-07-25T00:39:05.696Z,95378.81
2022-07-25T00:41:33.451Z,95379.81
2022-07-25T00:44:01.174Z,95377.16
2022-07-25T00:46:28.921Z,95375.06
2022-07-25T00:48:56.718Z,95372.19
2022-07-25T00:51:26.560Z,95374.44
2022-07-25T00:53:54.303Z,95370.09
2022-07-25T00:56:22.065Z,95372.59
2022-07-25T00:58:49.788Z,95371.91
2022-07-25T01:01:17.628Z,95366.88
2022-07-25T01:03:45.447Z,95355.44
2022-07-25T01:06:13.425Z,95368.69
2022-07-25T01:08:43.046Z,95363.72
2022-07-25T01:11:11.915Z,95360.03
2022-07-25T01:13:39.774Z,95353.28
2022-07-25T01:16:08.086Z,95355.09
2022-07-25T01:18:35.825Z,95354.81
2022-07-25T01:21:05.715Z,95349.97
2022-07-25T01:23:33.492Z,95346.44
2022-07-25T01:26:01.213Z,95349.78
2022-07-25T01:28:29.159Z,95345.66
2022-07-25T01:30:56.963Z,95345.97
2022-07-25T01:33:24.697Z,95340.81
2022-07-25T01:35:53.130Z,95338.88
2022-07-25T01:38:22.179Z,95343.41
2022-07-25T01:40:49.928Z,95338.81
2022-07-25T01:43:17.685Z,95338.66
2022-07-25T01:45:45.504Z,95335.44
2022-07-25T01:48:13.283Z,95336.25
2022-07-25T01:50:41.048Z,95331.88
2022-07-25T01:53:08.754Z,95329.94
2022-07-25T01:55:37.846Z,95327.38
2022-07-25T01:58:06.782Z,95331.47
2022-07-25T02:00:35.647Z,95340.66
2022-07-25T02:03:20.587Z,95336.22
2022-07-25T02:05:48.493Z,95331.22
2022-07-25T02:08:16.215Z,95332.53
2022-07-25T02:10:46.385Z,95330.16
2022-07-25T02:13:14.288Z,95324.19
2022-07-25T02:15:41.984Z,95323.38
2022-07-25T02:18:09.738Z,95322.56
2022-07-25T02:20:37.505Z,95320.97
2022-07-25T02:23:05.957Z,95314.34
2022-07-25T02:25:34.316Z,95315.97
2022-07-25T02:28:03.725Z,95310.97
2022-07-25T02:30:31.591Z,95312.75
2022-07-25T02:33:00.119Z,95317.56
2022-07-25T02:35:28.161Z,95306.94
2022-07-25T02:37:55.942Z,95304.38
2022-07-25T02:40:23.719Z,95306.63
2022-07-25T02:42:51.421Z,95306.16
2022-07-25T02:45:20.514Z,95309.53
2022-07-25T02:47:48.257Z,95301.16
2022-07-25T02:50:16.070Z,95306.16
2022-07-25T02:52:43.784Z,95304.25
2022-07-25T02:55:12.444Z,95308.13
2022-07-25T02:57:40.246Z,95309.59
2022-07-25T03:00:09.677Z,95315.38
2022-07-25T03:02:38.965Z,95312.50
2022-07-25T03:05:08.325Z,95309.91
2022-07-25T03:07:36.149Z,95320.38
2022-07-25T03:10:10.822Z,95310.22
2022-07-25T03:12:39.551Z,95313.94
2022-07-25T03:15:08.434Z,95316.19
2022-07-25T03:17:36.402Z,95314.13
2022-07-25T03:20:06.945Z,95319.41
2022-07-25T03:22:35.078Z,95315.75
2022-07-25T03:25:03.152Z,95321.53
2022-07-25T03:27:30.918Z,95322.34
2022-07-25T03:29:58.666Z,95314.94
2022-07-25T03:32:26.407Z,95314.47
2022-07-25T03:34:54.167Z,95315.56
2022-07-25T03:37:23.244Z,95310.06
2022-07-25T03:39:50.955Z,95309.91
2022-07-25T03:42:22.358Z,95312.00
2022-07-25T03:44:52.951Z,95317.97
2022-07-25T03:47:21.027Z,95310.25
2022-07-25T03:49:48.757Z,95311.84
2022-07-25T03:52:16.446Z,95306.69
2022-07-25T03:54:45.546Z,95309.91
2022-07-25T03:57:13.382Z,95306.53
2022-07-25T03:59:41.089Z,95300.44
2022-07-25T04:02:08.842Z,95304.13
2022-07-25T04:04:36.654Z,95309.28
2022-07-25T04:07:04.482Z,95307.03
2022-07-25T04:09:33.415Z,95311.69
2022-07-25T04:12:02.938Z,95305.41
2022-07-25T04:14:30.653Z,95310.25
2022-07-25T04:16:58.496Z,95301.72
2022-07-25T04:19:28.847Z,95298.03
2022-07-25T04:21:56.986Z,95310.59
2022-07-25T04:24:24.832Z,95295.75
2022-07-25T04:26:52.570Z,95296.22
2022-07-25T04:29:21.683Z,95293.34
2022-07-25T04:31:49.499Z,95297.38
2022-07-25T04:34:17.381Z,95293.34
2022-07-25T04:36:45.139Z,95291.84
2022-07-25T04:39:13.174Z,95296.53
2022-07-25T04:41:40.941Z,95282.34
2022-07-25T04:44:09.384Z,95287.63
2022-07-25T04:46:38.766Z,95290.97
2022-07-25T04:49:06.553Z,95281.75
2022-07-25T04:51:34.412Z,95283.19
2022-07-25T04:54:02.345Z,95281.41
2022-07-25T04:56:30.157Z,95285.75
2022-07-25T04:59:03.156Z,95270.22
2022-07-25T05:01:34.040Z,95273.75
2022-07-25T05:04:03.446Z,95270.13
2022-07-25T05:06:31.387Z,95272.50
2022-07-25T05:08:59.073Z,95269.91
2022-07-25T05:11:26.816Z,95267.44
2022-07-25T05:13:54.546Z,95260.44
2022-07-25T05:16:22.325Z,95257.63
2022-07-25T05:18:50.228Z,95253.69
2022-07-25T05:21:19.448Z,95259.13
2022-07-25T05:23:47.201Z,95256.75
2022-07-25T05:26:15.022Z,95262.97
2022-07-25T05:28:42.718Z,95256.66
2022-07-25T05:31:10.560Z,95258.75
2022-07-25T05:33:38.308Z,95250.22
2022-07-25T05:36:06.525Z,95248.44
2022-07-25T05:38:35.742Z,95255.00
2022-07-25T05:41:03.567Z,95256.47
2022-07-25T05:43:31.329Z,95252.69
2022-07-25T05:46:01.973Z,95249.47
2022-07-25T05:48:29.841Z,95253.31
2022-07-25T05:50:59.185Z,95241.56
2022-07-25T05:53:26.996Z,95247.38
2022-07-25T05:55:56.163Z,95243.97
2022-07-25T05:58:29.430Z,95230.69
2022-07-25T06:00:58.069Z,95234.50
2022-07-25T06:03:26.006Z,95236.44
2022-07-25T06:05:53.800Z,95240.31
2022-07-25T06:08:22.545Z,95229.09
2022-07-25T06:10:50.324Z,95228.22
2022-07-25T06:13:20.227Z,95234.75
2022-07-25T06:15:48.653Z,95231.97
2022-07-25T06:18:16.571Z,95232.00
2022-07-25T06:20:44.341Z,95231.47
2022-07-25T06:23:12.306Z,95223.13
2022-07-25T06:25:40.092Z,95226.56
2022-07-25T06:28:07.946Z,95233.13
2022-07-25T06:30:39.796Z,95225.56
2022-07-25T06:33:07.529Z,95230.13
2022-07-25T06:35:35.275Z,95224.28
2022-07-25T06:38:03.285Z,95224.25
2022-07-25T06:40:31.055Z,95221.72
2022-07-25T06:42:59.733Z,95222.13
2022-07-25T06:45:27.546Z,95225.59
2022-07-25T06:47:56.612Z,95215.81
2022-07-25T06:50:24.420Z,95214.34
2022-07-25T06:52:54.396Z,95215.25
2022-07-25T06:55:22.184Z,95207.78
2022-07-25T06:57:49.883Z,95208.69
2022-07-25T07:00:18.182Z,95198.09
2022-07-25T07:02:53.557Z,95201.28
2022-07-25T07:05:22.979Z,95199.72
2022-07-25T07:07:50.717Z,95203.41
2022-07-25T07:10:19.333Z,95204.31
2022-07-25T07:12:47.351Z,95198.41
2022-07-25T07:15:15.601Z,95203.59
2022-07-25T07:17:46.132Z,95197.66
2022-07-25T07:20:13.916Z,95195.31
2022-07-25T07:22:47.499Z,95191.31
2022-07-25T07:25:15.773Z,95188.59
2022-07-25T07:27:44.279Z,95190.63
2022-07-25T07:30:14.722Z,95182.75
2022-07-25T07:32:42.839Z,95175.28
2022-07-25T07:35:11.286Z,95179.66
2022-07-25T07:37:43.496Z,95184.44
2022-07-25T07:40:16.942Z,95181.69
2022-07-25T07:42:47.254Z,95183.69
2022-07-25T07:45:16.771Z,95181.66
2022-07-25T07:47:46.831Z,95174.84
2022-07-25T07:50:16.220Z,95165.25
2022-07-25T07:52:44.745Z,95170.47
2022-07-25T07:55:31.824Z,95170.47
2022-07-25T07:58:00.590Z,95176.38
2022-07-25T08:00:30.969Z,95181.44
2022-07-25T08:03:00.475Z,95186.63
2022-07-25T08:05:30.993Z,95180.63
2022-07-25T08:07:59.532Z,95184.22
2022-07-25T08:10:30.407Z,95184.19
2022-07-25T08:12:58.895Z,95182.94
2022-07-25T08:15:27.144Z,95175.97
2022-07-25T08:17:54.932Z,95172.22
2022-07-25T08:20:39.490Z,95167.81
2022-07-25T08:23:08.454Z,95164.53
2022-07-25T08:25:38.147Z,95162.47
2022-07-25T08:28:07.337Z,95162.34
2022-07-25T08:30:36.048Z,95159.94
2022-07-25T08:33:06.577Z,95164.53
2022-07-25T08:35:35.872Z,95149.50
2022-07-25T08:38:04.871Z,95147.75
2022-07-25T08:40:34.401Z,95153.56
2022-07-25T08:43:03.625Z,95147.06
2022-07-25T08:45:31.615Z,95150.47
2022-07-25T08:47:59.356Z,95148.09
2022-07-25T08:50:29.842Z,95142.41
2022-07-25T08:53:29.917Z,95139.00
2022-07-25T08:55:46.683Z,95145.59
2022-07-25T08:58:17.502Z,95146.03
2022-07-25T09:00:46.049Z,95149.91
2022-07-25T09:03:14.228Z,95139.38
2022-07-25T09:05:42.479Z,95136.25
2022-07-25T09:08:11.804Z,95126.00
2022-07-25T09:10:42.358Z,95140.09
2022-07-25T09:13:14.163Z,95128.56
2022-07-25T09:15:46.772Z,95133.44
2022-07-25T09:18:17.018Z,95129.69
2022-07-25T09:20:49.213Z,95125.59
2022-07-25T09:23:30.151Z,95126.50
2022-07-25T09:26:03.545Z,95115.91
2022-07-25T09:28:31.489Z,95116.84
2022-07-25T09:31:02.070Z,95116.34
2022-07-25T09:33:30.643Z,95114.78
2022-07-25T09:35:58.412Z,95114.47
2022-07-25T09:38:26.289Z,95116.59
2022-07-25T09:40:59.783Z,95107.41
2022-07-25T09:43:37.482Z,95103.13
2022-07-25T09:46:07.748Z,95110.00
2022-07-25T09:48:36.146Z,95121.16
2022-07-25T09:51:04.651Z,95117.28
2022-07-25T09:53:32.640Z,95107.84
2022-07-25T09:56:00.975Z,95100.84
2022-07-25T09:58:29.993Z,95115.38
2022-07-25T10:01:04.308Z,95109.09
2022-07-25T10:03:51.693Z,95096.50
2022-07-25T10:06:23.214Z,95107.56
2022-07-25T10:08:52.038Z,95102.94
2022-07-25T10:11:21.269Z,95099.50
2022-07-25T10:13:49.601Z,95086.91
2022-07-25T10:16:19.388Z,95085.75
2022-07-25T10:18:53.364Z,95087.19
2022-07-25T10:21:26.764Z,95082.03
2022-07-25T10:24:04.170Z,95079.34
2022-07-25T10:26:33.416Z,95084.03
2022-07-25T10:29:02.115Z,95087.84
2022-07-25T10:31:37.042Z,95069.81
2022-07-25T10:34:08.313Z,95072.09
2022-07-25T10:36:44.802Z,95071.66
2022-07-25T10:39:15.259Z,95066.53
2022-07-25T10:41:45.279Z,95070.53
2022-07-25T10:44:14.744Z,95064.75
2022-07-25T10:46:44.562Z,95058.13
2022-07-25T10:49:23.673Z,95059.44
2022-07-25T10:51:58.758Z,95051.00
2022-07-25T10:54:27.037Z,95049.53
2022-07-25T10:56:57.471Z,95040.19
2022-07-25T10:59:30.963Z,95043.13
2022-07-25T11:01:59.205Z,95036.97
2022-07-25T11:04:28.805Z,95039.00
2022-07-25T11:06:56.584Z,95046.78
2022-07-25T11:09:27.758Z,95033.69
2022-07-25T11:11:57.810Z,95052.16
2022-07-25T11:14:31.218Z,95045.88
2022-07-25T11:16:59.477Z,95045.91
2022-07-25T11:19:30.080Z,95044.00
2022-07-25T11:21:59.751Z,95038.41
2022-07-25T11:24:35.898Z,95038.44
2022-07-25T11:27:09.760Z,95052.44
2022-07-25T11:29:40.695Z,95032.84
2022-07-25T11:32:10.539Z,95029.84
2022-07-25T11:34:42.643Z,95039.47
2022-07-25T11:37:12.525Z,95027.06
2022-07-25T11:39:43.992Z,95026.97
2022-07-25T11:42:13.493Z,95024.94
2022-07-25T11:44:47.615Z,95024.03
2022-07-25T11:47:27.706Z,95013.06
2022-07-25T11:49:59.029Z,95015.56
2022-07-25T11:52:31.069Z,95014.31
2022-07-25T11:55:00.584Z,95019.59
2022-07-25T11:57:30.694Z,95015.28
2022-07-25T12:00:00.284Z,95020.75
2022-07-25T12:02:31.112Z,95010.59
2022-07-25T12:05:02.048Z,95008.44
2022-07-25T12:07:38.228Z,95015.34
2022-07-25T12:10:07.333Z,95007.41
2022-07-25T12:12:50.160Z,95001.88
2022-07-25T12:15:20.103Z,95008.38
2022-07-25T12:17:48.621Z,95008.28
2022-07-25T12:20:19.489Z,94994.97
2022-07-25T12:22:47.556Z,94999.34
2022-07-25T12:25:15.978Z,94998.69
2022-07-25T12:27:44.439Z,94987.88
2022-07-25T12:30:13.869Z,94987.97
2022-07-25T12:32:42.820Z,94988.88
2022-07-25T12:35:13.309Z,94979.72
2022-07-25T12:37:43.647Z,94988.59
2022-07-25T12:40:12.778Z,94973.22
2022-07-25T12:42:40.509Z,94981.44
2022-07-25T12:45:09.353Z,94979.84
2022-07-25T12:47:37.555Z,94974.53
2022-07-25T12:50:06.979Z,94963.66
2022-07-25T12:52:35.107Z,94967.75
2022-07-25T12:55:04.578Z,94978.09
2022-07-25T12:57:32.586Z,94979.22
2022-07-25T13:00:00.253Z,94975.31
2022-07-25T13:02:28.042Z,94964.50
2022-07-25T13:04:55.803Z,94961.19
2022-07-25T13:07:23.600Z,94954.38
2022-07-25T13:09:51.356Z,94950.28
2022-07-25T13:12:20.646Z,94958.63
2022-07-25T13:14:48.975Z,94953.72
2022-07-25T13:17:16.811Z,94950.09
2022-07-25T13:19:44.648Z,94949.91
2022-07-25T13:22:12.693Z,94942.06
2022-07-25T13:24:40.445Z,94957.56
2022-07-25T13:27:08.572Z,94960.00
2022-07-25T13:29:37.719Z,94950.34
2022-07-25T13:32:06.461Z,94950.44
2022-07-25T13:34:34.264Z,94940.16
2022-07-25T13:37:01.973Z,94943.84
2022-07-25T13:39:29.710Z,94937.78
2022-07-25T13:41:57.569Z,94941.56
2022-07-25T13:44:25.301Z,94931.22
2022-07-25T13:46:54.534Z,94930.50
2022-07-25T13:49:22.423Z,94932.47
2022-07-25T13:51:50.224Z,94927.75
2022-07-25T13:54:17.978Z,94938.81
2022-07-25T13:56:45.848Z,94922.00
2022-07-25T13:59:20.400Z,94931.56
2022-07-25T14:01:49.007Z,94925.97
2022-07-25T14:04:18.407Z,94912.97
2022-07-25T14:06:46.326Z,94912.25
2022-07-25T14:09:14.043Z,94920.38
2022-07-25T14:11:41.838Z,94921.91
2022-07-25T14:14:09.524Z,94909.66
2022-07-25T14:16:37.235Z,94895.91
2022-07-25T14:19:05.496Z,94897.66
2022-07-25T14:21:34.846Z,94904.47
2022-07-25T14:24:02.587Z,94888.34
2022-07-25T14:26:31.045Z,94888.94
2022-07-25T14:28:58.892Z,94881.66
2022-07-25T14:31:27.141Z,94892.09
2022-07-25T14:33:55.086Z,94874.78
2022-07-25T14:36:22.847Z,94880.16
2022-07-25T14:38:52.083Z,94871.84
2022-07-25T14:41:20.356Z,94865.72
2022-07-25T14:43:48.197Z,94880.38
2022-07-25T14:46:16.236Z,94862.53
2022-07-25T14:48:44.156Z,94873.44
2022-07-25T14:51:11.975Z,94860.00
2022-07-25T14:53:39.845Z,94860.59
2022-07-25T14:56:09.261Z,94856.66
2022-07-25T14:58:38.178Z,94847.69
2022-07-25T15:01:07.011Z,94858.34
2022-07-25T15:03:34.843Z,94860.91
2022-07-25T15:06:03.086Z,94847.56
2022-07-25T15:08:30.897Z,94861.34
2022-07-25T15:10:58.636Z,94851.91
2022-07-25T15:13:31.493Z,94840.19
2022-07-25T15:16:00.027Z,94850.50
2022-07-25T15:18:27.837Z,94844.31
2022-07-25T15:20:55.632Z,94847.94
2022-07-25T15:23:24.986Z,94835.31
2022-07-25T15:26:02.221Z,94833.34
2022-07-25T15:28:33.467Z,94827.47
2022-07-25T15:31:01.688Z,94829.16
2022-07-25T15:33:29.552Z,94812.03
2022-07-25T15:35:57.984Z,94808.91
2022-07-25T15:38:25.836Z,94818.28
2022-07-25T15:40:53.561Z,94823.00
2022-07-25T15:43:21.308Z,94798.03
2022-07-25T15:45:52.680Z,94813.88
2022-07-25T15:48:20.409Z,94806.53
2022-07-25T15:50:51.590Z,94801.44
2022-07-25T15:53:21.077Z,94799.19
2022-07-25T15:55:49.281Z,94793.94
2022-07-25T15:58:17.223Z,94794.84
2022-07-25T16:00:45.143Z,94779.50
2022-07-25T16:03:14.830Z,94781.34
2022-07-25T16:05:44.595Z,94778.50
2022-07-25T16:08:12.406Z,94789.59
2022-07-25T16:10:40.123Z,94785.41
2022-07-25T16:13:07.863Z,94778.38
2022-07-25T16:15:35.976Z,94790.31
2022-07-25T16:18:03.760Z,94778.72
2022-07-25T16:20:33.847Z,94779.56
2022-07-25T16:23:02.070Z,94781.88
2022-07-25T16:25:30.783Z,94772.75
2022-07-25T16:28:00.124Z,94772.47
2022-07-25T16:30:28.218Z,94781.53
2022-07-25T16:32:56.185Z,94776.69
2022-07-25T16:35:24.199Z,94768.09
2022-07-25T16:37:53.372Z,94767.91
2022-07-25T16:40:21.394Z,94767.78
2022-07-25T16:42:50.488Z,94766.09
2022-07-25T16:45:18.197Z,94760.88
2022-07-25T16:47:45.925Z,94753.28
2022-07-25T16:50:13.656Z,94766.13
2022-07-25T16:52:41.388Z,94753.47
2022-07-25T16:55:10.971Z,94767.06
2022-07-25T16:57:39.260Z,94744.78
2022-07-25T17:00:09.663Z,94761.06
2022-07-25T17:02:37.538Z,94759.09
2022-07-25T17:05:06.182Z,94756.94
2022-07-25T17:07:34.093Z,94761.97
2022-07-25T17:10:01.852Z,94762.53
2022-07-25T17:12:33.637Z,94762.50
2022-07-25T17:15:01.496Z,94762.53
2022-07-25T17:17:29.320Z,94753.53
2022-07-25T17:20:00.100Z,94761.25
2022-07-25T17:22:28.095Z,94773.88
2022-07-25T17:24:55.888Z,94777.75
2022-07-25T17:27:24.067Z,94778.50
2022-07-25T17:29:53.228Z,94778.25
2022-07-25T17:32:23.057Z,94770.84
2022-07-25T17:34:54.383Z,94771.44
2022-07-25T17:37:22.801Z,94769.75
2022-07-25T17:39:50.840Z,94772.03
2022-07-25T17:42:22.268Z,94775.41
2022-07-25T17:44:50.215Z,94779.88
2022-07-25T17:47:20.008Z,94781.47
2022-07-25T17:49:47.748Z,94769.19
2022-07-25T17:52:15.978Z,94765.25
2022-07-25T17:54:43.788Z,94776.84
2022-07-25T17:57:11.934Z,94768.59
2022-07-25T17:59:39.910Z,94762.72
2022-07-25T18:02:07.737Z,94764.06
2022-07-25T18:04:37.978Z,94760.69
2022-07-25T18:07:05.814Z,94770.66
2022-07-25T18:09:33.754Z,94778.28
2022-07-25T18:12:01.739Z,94787.53
2022-07-25T18:14:30.140Z,94783.91
2022-07-25T18:16:58.482Z,94797.81
2022-07-25T18:19:26.456Z,94801.78
2022-07-25T18:21:55.595Z,94827.63
2022-07-25T18:24:28.837Z,94818.28
2022-07-25T18:26:57.110Z,94839.47
2022-07-25T18:29:24.984Z,94836.38
2022-07-25T18:31:52.765Z,94851.84
2022-07-25T18:34:20.499Z,94854.78
2022-07-25T18:36:48.825Z,94870.75
2022-07-25T18:39:18.021Z,94862.75
2022-07-25T18:41:45.777Z,94868.81
2022-07-25T18:44:13.592Z,94869.25
2022-07-25T18:46:43.467Z,94875.53
2022-07-25T18:49:12.004Z,94877.78
2022-07-25T18:51:40.212Z,94881.34
2022-07-25T18:54:08.696Z,94880.75
2022-07-25T18:56:38.331Z,94882.25
2022-07-25T18:59:07.005Z,94881.25
2022-07-25T19:01:35.760Z,94888.22
2022-07-25T19:04:03.682Z,94892.00
2022-07-25T19:06:31.595Z,94886.91
2022-07-25T19:08:59.316Z,94883.94
2022-07-25T19:11:27.580Z,94885.22
2022-07-25T19:13:57.524Z,94890.97
2022-07-25T19:16:25.481Z,94884.72
2022-07-25T19:18:53.617Z,94881.59
2022-07-25T19:21:21.457Z,94887.72
2022-07-25T19:23:51.121Z,94887.03
2022-07-25T19:26:19.821Z,94896.66
2022-07-25T19:28:48.039Z,94898.34
2022-07-25T19:31:17.207Z,94896.75
2022-07-25T19:33:46.121Z,94888.88
2022-07-25T19:36:14.645Z,94888.63
2022-07-25T19:38:42.612Z,94888.72
2022-07-25T19:41:11.012Z,94881.63
2022-07-25T19:43:38.783Z,94885.97
2022-07-25T19:46:06.747Z,94884.59
2022-07-25T19:48:36.114Z,94903.38
2022-07-25T19:51:03.920Z,94906.19
2022-07-25T19:53:34.277Z,94915.41
2022-07-25T19:56:02.326Z,94918.22
2022-07-25T19:58:33.073Z,94915.47
2022-07-25T20:01:03.472Z,94911.09
2022-07-25T20:03:31.513Z,94914.31
2022-07-25T20:06:04.621Z,94906.69
2022-07-25T20:08:35.529Z,94901.63
2022-07-25T20:11:03.436Z,94900.19
2022-07-25T20:13:31.246Z,94909.88
2022-07-25T20:15:59.851Z,94909.47
2022-07-25T20:18:27.628Z,94917.03
2022-07-25T20:20:55.454Z,94933.41
2022-07-25T20:23:26.623Z,94957.63
2022-07-25T20:25:56.894Z,94983.47
2022-07-25T20:28:27.806Z,94992.53
2022-07-25T20:30:56.296Z,95013.69
2022-07-25T20:33:27.040Z,95007.41
2022-07-25T20:35:55.706Z,95053.31
2022-07-25T20:38:28.298Z,95061.88
2022-07-25T20:40:56.491Z,95076.53
2022-07-25T20:43:24.979Z,95058.25
2022-07-25T20:45:53.011Z,95058.63
2022-07-25T20:48:20.758Z,95052.34
2022-07-25T20:50:49.682Z,95026.66
2022-07-25T20:53:17.483Z,95006.66
2022-07-25T20:55:46.633Z,95013.03
2022-07-25T20:58:14.362Z,95021.53
2022-07-25T21:00:42.407Z,95026.09
2022-07-25T21:03:10.313Z,95075.19
2022-07-25T21:05:39.372Z,95102.22
2022-07-25T21:08:07.952Z,95127.69
2022-07-25T21:10:35.698Z,95114.66
2022-07-25T21:13:05.052Z,95129.47
2022-07-25T21:15:32.890Z,95150.16
2022-07-25T21:18:00.745Z,95151.75
2022-07-25T21:20:28.599Z,95179.59
2022-07-25T21:22:56.377Z,95192.81
2022-07-25T21:25:24.086Z,95201.47
2022-07-25T21:27:51.891Z,95222.75
2022-07-25T21:30:20.988Z,95266.72
2022-07-25T21:32:48.937Z,95345.91
2022-07-25T21:35:18.080Z,95341.03
2022-07-25T21:37:45.892Z,95359.63
2022-07-25T21:40:13.800Z,95375.69
2022-07-25T21:42:42.425Z,95370.06
2022-07-25T21:45:10.902Z,95343.69
2022-07-25T21:47:40.026Z,95310.38
2022-07-25T21:50:26.395Z,95296.25
2022-07-25T21:52:54.832Z,95279.16
2022-07-25T21:55:22.901Z,95278.44
2022-07-25T21:57:51.892Z,95301.16
2022-07-25T22:00:21.166Z,95306.00
2022-07-25T22:02:50.518Z,95315.63
2022-07-25T22:05:19.353Z,95367.78
2022-07-25T22:07:48.272Z,95412.00
2022-07-25T22:10:17.612Z,95407.75
2022-07-25T22:12:45.365Z,95388.50
2022-07-25T22:15:14.047Z,95380.13
2022-07-25T22:17:49.356Z,95367.19
2022-07-25T22:20:20.367Z,95380.00
2022-07-25T22:22:48.501Z,95384.03
2022-07-25T22:25:16.699Z,95395.38
2022-07-25T22:27:44.572Z,95411.41
2022-07-25T22:30:18.522Z,95438.22
2022-07-25T22:32:47.610Z,95457.16
2022-07-25T22:35:15.772Z,95461.03
2022-07-25T22:37:45.161Z,95472.38
2022-07-25T22:40:14.759Z,95460.47
2022-07-25T22:42:42.541Z,95448.19
2022-07-25T22:45:11.568Z,95428.63
2022-07-25T22:47:39.563Z,95415.22
2022-07-25T22:50:08.915Z,95414.41
2022-07-25T22:52:36.659Z,95410.72
2022-07-25T22:55:06.584Z,95414.53
2022-07-25T22:57:37.276Z,95418.94
